sensor_id;sensor_type;location;lat;lon;timestamp;temperature;humidity
11934;DHT22;6026;48.784;9.198;2023-07-08T00:01:35;24.00;79.10
11934;DHT22;6026;48.784;9.198;2023-07-08T00:04:01;24.00;79.90
11934;DHT22;6026;48.784;9.198;2023-07-08T00:06:29;24.00;81.30
11934;DHT22;6026;48.784;9.198;2023-07-08T00:08:54;24.00;81.70
11934;DHT22;6026;48.784;9.198;2023-07-08T00:11:20;24.00;82.00
11934;DHT22;6026;48.784;9.198;2023-07-08T00:13:46;23.90;82.20
11934;DHT22;6026;48.784;9.198;2023-07-08T00:16:14;23.90;82.40
11934;DHT22;6026;48.784;9.198;2023-07-08T00:18:40;23.90;82.90
11934;DHT22;6026;48.784;9.198;2023-07-08T00:21:15;23.80;82.90
11934;DHT22;6026;48.784;9.198;2023-07-08T00:23:46;23.80;82.90
11934;DHT22;6026;48.784;9.198;2023-07-08T00:26:19;23.70;82.90
11934;DHT22;6026;48.784;9.198;2023-07-08T00:28:46;23.70;83.10
11934;DHT22;6026;48.784;9.198;2023-07-08T00:31:12;23.60;82.60
11934;DHT22;6026;48.784;9.198;2023-07-08T00:33:39;23.60;82.90
11934;DHT22;6026;48.784;9.198;2023-07-08T00:36:10;23.50;83.20
11934;DHT22;6026;48.784;9.198;2023-07-08T00:38:36;23.50;83.40
11934;DHT22;6026;48.784;9.198;2023-07-08T00:43:37;23.40;84.00
11934;DHT22;6026;48.784;9.198;2023-07-08T00:46:31;23.40;84.20
11934;DHT22;6026;48.784;9.198;2023-07-08T00:51:41;23.30;84.30
11934;DHT22;6026;48.784;9.198;2023-07-08T00:54:17;23.30;84.30
11934;DHT22;6026;48.784;9.198;2023-07-08T00:56:53;23.20;84.40
11934;DHT22;6026;48.784;9.198;2023-07-08T00:59:25;23.20;84.70
11934;DHT22;6026;48.784;9.198;2023-07-08T01:01:54;23.10;84.80
11934;DHT22;6026;48.784;9.198;2023-07-08T01:04:24;23.10;84.80
11934;DHT22;6026;48.784;9.198;2023-07-08T01:06:54;23.00;84.80
11934;DHT22;6026;48.784;9.198;2023-07-08T01:09:28;23.00;86.30
11934;DHT22;6026;48.784;9.198;2023-07-08T01:11:56;23.00;85.80
11934;DHT22;6026;48.784;9.198;2023-07-08T01:14:24;22.90;85.80
11934;DHT22;6026;48.784;9.198;2023-07-08T01:16:52;22.90;85.90
11934;DHT22;6026;48.784;9.198;2023-07-08T01:19:20;22.80;86.30
11934;DHT22;6026;48.784;9.198;2023-07-08T01:21:58;22.70;86.30
11934;DHT22;6026;48.784;9.198;2023-07-08T01:24:27;22.60;86.30
11934;DHT22;6026;48.784;9.198;2023-07-08T01:26:53;22.60;86.70
11934;DHT22;6026;48.784;9.198;2023-07-08T01:29:19;22.40;87.20
11934;DHT22;6026;48.784;9.198;2023-07-08T01:31:45;22.40;87.20
11934;DHT22;6026;48.784;9.198;2023-07-08T01:34:14;22.40;87.10
11934;DHT22;6026;48.784;9.198;2023-07-08T01:36:50;22.20;87.80
11934;DHT22;6026;48.784;9.198;2023-07-08T01:39:23;22.30;88.20
11934;DHT22;6026;48.784;9.198;2023-07-08T01:41:48;22.40;88.40
11934;DHT22;6026;48.784;9.198;2023-07-08T01:44:26;22.30;88.80
11934;DHT22;6026;48.784;9.198;2023-07-08T01:46:54;22.30;89.20
11934;DHT22;6026;48.784;9.198;2023-07-08T01:49:21;22.30;89.60
11934;DHT22;6026;48.784;9.198;2023-07-08T01:51:48;22.30;89.60
11934;DHT22;6026;48.784;9.198;2023-07-08T01:54:15;22.30;90.00
11934;DHT22;6026;48.784;9.198;2023-07-08T01:56:40;22.30;90.10
11934;DHT22;6026;48.784;9.198;2023-07-08T01:59:06;22.20;90.10
11934;DHT22;6026;48.784;9.198;2023-07-08T02:01:31;22.20;90.20
11934;DHT22;6026;48.784;9.198;2023-07-08T02:03:57;22.20;90.30
11934;DHT22;6026;48.784;9.198;2023-07-08T02:06:22;22.20;90.50
11934;DHT22;6026;48.784;9.198;2023-07-08T02:08:48;22.10;90.40
11934;DHT22;6026;48.784;9.198;2023-07-08T02:11:15;22.00;90.20
11934;DHT22;6026;48.784;9.198;2023-07-08T02:13:41;22.00;90.40
11934;DHT22;6026;48.784;9.198;2023-07-08T02:16:06;22.00;90.40
11934;DHT22;6026;48.784;9.198;2023-07-08T02:18:32;21.90;90.30
11934;DHT22;6026;48.784;9.198;2023-07-08T02:20:58;21.80;90.50
11934;DHT22;6026;48.784;9.198;2023-07-08T02:23:25;21.70;90.80
11934;DHT22;6026;48.784;9.198;2023-07-08T02:25:52;21.70;90.40
11934;DHT22;6026;48.784;9.198;2023-07-08T02:28:17;21.60;90.30
11934;DHT22;6026;48.784;9.198;2023-07-08T02:30:43;21.60;90.40
11934;DHT22;6026;48.784;9.198;2023-07-08T02:33:09;21.70;90.20
11934;DHT22;6026;48.784;9.198;2023-07-08T02:35:35;21.50;90.30
11934;DHT22;6026;48.784;9.198;2023-07-08T02:38:00;21.60;90.30
11934;DHT22;6026;48.784;9.198;2023-07-08T02:40:26;21.50;90.40
11934;DHT22;6026;48.784;9.198;2023-07-08T02:42:52;21.50;90.70
11934;DHT22;6026;48.784;9.198;2023-07-08T02:45:18;21.50;90.80
11934;DHT22;6026;48.784;9.198;2023-07-08T02:47:44;21.50;91.00
11934;DHT22;6026;48.784;9.198;2023-07-08T02:50:10;21.50;91.00
11934;DHT22;6026;48.784;9.198;2023-07-08T02:52:36;21.50;91.00
11934;DHT22;6026;48.784;9.198;2023-07-08T02:55:02;21.50;91.00
11934;DHT22;6026;48.784;9.198;2023-07-08T02:57:28;21.50;91.10
11934;DHT22;6026;48.784;9.198;2023-07-08T02:59:53;21.50;91.70
11934;DHT22;6026;48.784;9.198;2023-07-08T03:02:19;21.30;91.50
11934;DHT22;6026;48.784;9.198;2023-07-08T03:04:44;21.30;91.50
11934;DHT22;6026;48.784;9.198;2023-07-08T03:07:11;21.30;91.50
11934;DHT22;6026;48.784;9.198;2023-07-08T03:09:40;21.40;91.20
11934;DHT22;6026;48.784;9.198;2023-07-08T03:12:07;21.40;89.80
11934;DHT22;6026;48.784;9.198;2023-07-08T03:14:33;21.40;88.70
11934;DHT22;6026;48.784;9.198;2023-07-08T03:16:59;21.40;88.80
11934;DHT22;6026;48.784;9.198;2023-07-08T03:19:24;21.40;89.10
11934;DHT22;6026;48.784;9.198;2023-07-08T03:21:51;21.50;88.90
11934;DHT22;6026;48.784;9.198;2023-07-08T03:24:16;21.40;87.30
11934;DHT22;6026;48.784;9.198;2023-07-08T03:26:44;21.50;88.30
11934;DHT22;6026;48.784;9.198;2023-07-08T03:29:16;21.50;88.60
11934;DHT22;6026;48.784;9.198;2023-07-08T03:31:43;21.50;88.70
11934;DHT22;6026;48.784;9.198;2023-07-08T03:34:14;21.30;90.60
11934;DHT22;6026;48.784;9.198;2023-07-08T03:36:50;21.10;90.50
11934;DHT22;6026;48.784;9.198;2023-07-08T03:39:18;21.20;91.30
11934;DHT22;6026;48.784;9.198;2023-07-08T03:41:44;21.10;92.30
11934;DHT22;6026;48.784;9.198;2023-07-08T03:44:11;21.10;92.40
11934;DHT22;6026;48.784;9.198;2023-07-08T03:46:36;21.10;92.30
11934;DHT22;6026;48.784;9.198;2023-07-08T03:49:02;21.20;92.30
11934;DHT22;6026;48.784;9.198;2023-07-08T03:51:32;21.10;92.50
11934;DHT22;6026;48.784;9.198;2023-07-08T03:53:58;21.00;92.60
11934;DHT22;6026;48.784;9.198;2023-07-08T03:56:24;21.00;92.60
11934;DHT22;6026;48.784;9.198;2023-07-08T03:58:50;20.90;92.50
11934;DHT22;6026;48.784;9.198;2023-07-08T04:01:17;20.80;92.50
11934;DHT22;6026;48.784;9.198;2023-07-08T04:03:43;20.70;92.80
11934;DHT22;6026;48.784;9.198;2023-07-08T04:06:09;20.70;92.70
11934;DHT22;6026;48.784;9.198;2023-07-08T04:08:35;20.70;92.50
11934;DHT22;6026;48.784;9.198;2023-07-08T04:11:00;20.90;92.90
11934;DHT22;6026;48.784;9.198;2023-07-08T04:13:26;20.80;92.80
11934;DHT22;6026;48.784;9.198;2023-07-08T04:15:55;20.90;92.90
11934;DHT22;6026;48.784;9.198;2023-07-08T04:18:21;20.90;93.00
11934;DHT22;6026;48.784;9.198;2023-07-08T04:20:47;20.90;93.20
11934;DHT22;6026;48.784;9.198;2023-07-08T04:23:18;21.00;93.60
11934;DHT22;6026;48.784;9.198;2023-07-08T04:25:44;21.00;93.30
11934;DHT22;6026;48.784;9.198;2023-07-08T04:28:09;21.00;93.10
11934;DHT22;6026;48.784;9.198;2023-07-08T04:30:35;21.00;93.20
11934;DHT22;6026;48.784;9.198;2023-07-08T04:33:12;20.90;93.30
11934;DHT22;6026;48.784;9.198;2023-07-08T04:35:40;20.80;93.30
11934;DHT22;6026;48.784;9.198;2023-07-08T04:38:08;20.90;93.50
11934;DHT22;6026;48.784;9.198;2023-07-08T04:40:37;21.00;93.40
11934;DHT22;6026;48.784;9.198;2023-07-08T04:43:06;21.00;93.30
11934;DHT22;6026;48.784;9.198;2023-07-08T04:45:32;21.00;93.20
11934;DHT22;6026;48.784;9.198;2023-07-08T04:47:57;21.00;92.90
11934;DHT22;6026;48.784;9.198;2023-07-08T04:50:23;21.10;92.90
11934;DHT22;6026;48.784;9.198;2023-07-08T04:52:48;21.10;93.00
11934;DHT22;6026;48.784;9.198;2023-07-08T04:55:15;21.10;93.20
11934;DHT22;6026;48.784;9.198;2023-07-08T04:57:41;21.20;93.50
11934;DHT22;6026;48.784;9.198;2023-07-08T05:00:09;21.30;93.50
11934;DHT22;6026;48.784;9.198;2023-07-08T05:02:37;21.40;93.80
11934;DHT22;6026;48.784;9.198;2023-07-08T05:05:03;21.40;94.40
11934;DHT22;6026;48.784;9.198;2023-07-08T05:07:28;21.50;94.40
11934;DHT22;6026;48.784;9.198;2023-07-08T05:09:54;21.50;94.50
11934;DHT22;6026;48.784;9.198;2023-07-08T05:12:19;21.50;95.40
11934;DHT22;6026;48.784;9.198;2023-07-08T05:14:45;21.60;95.00
11934;DHT22;6026;48.784;9.198;2023-07-08T05:17:10;21.60;93.90
11934;DHT22;6026;48.784;9.198;2023-07-08T05:19:36;21.60;93.30
11934;DHT22;6026;48.784;9.198;2023-07-08T05:22:01;21.70;93.60
11934;DHT22;6026;48.784;9.198;2023-07-08T05:24:27;21.80;93.50
11934;DHT22;6026;48.784;9.198;2023-07-08T05:26:53;21.90;93.30
11934;DHT22;6026;48.784;9.198;2023-07-08T05:29:18;22.10;92.80
11934;DHT22;6026;48.784;9.198;2023-07-08T05:31:44;22.20;92.70
11934;DHT22;6026;48.784;9.198;2023-07-08T05:34:09;22.30;92.70
11934;DHT22;6026;48.784;9.198;2023-07-08T05:36:35;22.40;92.60
11934;DHT22;6026;48.784;9.198;2023-07-08T05:39:01;22.50;92.60
11934;DHT22;6026;48.784;9.198;2023-07-08T05:41:26;22.50;92.70
11934;DHT22;6026;48.784;9.198;2023-07-08T05:43:52;22.60;92.60
11934;DHT22;6026;48.784;9.198;2023-07-08T05:46:17;22.70;92.70
11934;DHT22;6026;48.784;9.198;2023-07-08T05:48:43;22.80;92.80
11934;DHT22;6026;48.784;9.198;2023-07-08T05:51:09;22.80;92.70
11934;DHT22;6026;48.784;9.198;2023-07-08T05:53:34;22.80;92.50
11934;DHT22;6026;48.784;9.198;2023-07-08T05:56:01;22.90;92.60
11934;DHT22;6026;48.784;9.198;2023-07-08T05:58:27;22.90;92.80
11934;DHT22;6026;48.784;9.198;2023-07-08T06:00:57;23.00;92.70
11934;DHT22;6026;48.784;9.198;2023-07-08T06:03:23;23.10;93.10
11934;DHT22;6026;48.784;9.198;2023-07-08T06:05:48;23.20;92.90
11934;DHT22;6026;48.784;9.198;2023-07-08T06:08:14;23.20;92.50
11934;DHT22;6026;48.784;9.198;2023-07-08T06:10:44;23.30;92.50
11934;DHT22;6026;48.784;9.198;2023-07-08T06:13:11;23.40;92.50
11934;DHT22;6026;48.784;9.198;2023-07-08T06:15:37;23.40;93.00
11934;DHT22;6026;48.784;9.198;2023-07-08T06:18:03;23.50;92.00
11934;DHT22;6026;48.784;9.198;2023-07-08T06:20:29;23.50;92.50
11934;DHT22;6026;48.784;9.198;2023-07-08T06:22:55;23.60;92.70
11934;DHT22;6026;48.784;9.198;2023-07-08T06:25:20;23.60;92.90
11934;DHT22;6026;48.784;9.198;2023-07-08T06:27:46;23.70;92.70
11934;DHT22;6026;48.784;9.198;2023-07-08T06:30:12;23.80;92.80
11934;DHT22;6026;48.784;9.198;2023-07-08T06:32:37;24.00;93.00
11934;DHT22;6026;48.784;9.198;2023-07-08T06:35:03;24.20;92.50
11934;DHT22;6026;48.784;9.198;2023-07-08T06:37:29;24.40;92.40
11934;DHT22;6026;48.784;9.198;2023-07-08T06:39:54;24.70;92.70
11934;DHT22;6026;48.784;9.198;2023-07-08T06:42:20;24.90;91.20
11934;DHT22;6026;48.784;9.198;2023-07-08T06:44:45;25.10;90.90
11934;DHT22;6026;48.784;9.198;2023-07-08T06:47:20;25.20;90.30
11934;DHT22;6026;48.784;9.198;2023-07-08T06:49:46;25.20;90.90
11934;DHT22;6026;48.784;9.198;2023-07-08T06:52:13;25.20;90.80
11934;DHT22;6026;48.784;9.198;2023-07-08T06:54:38;25.60;90.70
11934;DHT22;6026;48.784;9.198;2023-07-08T06:57:04;25.90;90.10
11934;DHT22;6026;48.784;9.198;2023-07-08T06:59:31;26.20;89.80
11934;DHT22;6026;48.784;9.198;2023-07-08T07:01:56;26.70;89.70
11934;DHT22;6026;48.784;9.198;2023-07-08T07:04:22;26.80;89.50
11934;DHT22;6026;48.784;9.198;2023-07-08T07:06:48;26.70;90.00
11934;DHT22;6026;48.784;9.198;2023-07-08T07:09:13;26.50;90.30
11934;DHT22;6026;48.784;9.198;2023-07-08T07:11:39;26.20;90.60
11934;DHT22;6026;48.784;9.198;2023-07-08T07:14:04;26.20;90.80
11934;DHT22;6026;48.784;9.198;2023-07-08T07:16:30;25.90;91.10
11934;DHT22;6026;48.784;9.198;2023-07-08T07:18:55;25.80;91.40
11934;DHT22;6026;48.784;9.198;2023-07-08T07:21:21;25.70;91.70
11934;DHT22;6026;48.784;9.198;2023-07-08T07:23:47;25.50;92.00
11934;DHT22;6026;48.784;9.198;2023-07-08T07:26:13;25.30;92.20
11934;DHT22;6026;48.784;9.198;2023-07-08T07:28:38;25.30;92.50
11934;DHT22;6026;48.784;9.198;2023-07-08T07:31:04;25.30;92.50
11934;DHT22;6026;48.784;9.198;2023-07-08T07:33:32;25.20;92.80
11934;DHT22;6026;48.784;9.198;2023-07-08T07:35:58;25.30;93.00
11934;DHT22;6026;48.784;9.198;2023-07-08T07:38:23;25.30;93.00
11934;DHT22;6026;48.784;9.198;2023-07-08T07:40:55;25.20;93.00
11934;DHT22;6026;48.784;9.198;2023-07-08T07:43:21;25.20;93.30
11934;DHT22;6026;48.784;9.198;2023-07-08T07:45:53;25.20;93.20
11934;DHT22;6026;48.784;9.198;2023-07-08T07:48:21;25.20;93.30
11934;DHT22;6026;48.784;9.198;2023-07-08T07:50:50;25.30;93.30
11934;DHT22;6026;48.784;9.198;2023-07-08T07:53:17;25.30;93.40
11934;DHT22;6026;48.784;9.198;2023-07-08T07:55:43;25.30;93.30
11934;DHT22;6026;48.784;9.198;2023-07-08T07:58:08;25.50;93.40
11934;DHT22;6026;48.784;9.198;2023-07-08T08:00:37;25.70;93.50
11934;DHT22;6026;48.784;9.198;2023-07-08T08:03:03;26.10;93.20
11934;DHT22;6026;48.784;9.198;2023-07-08T08:05:29;27.00;92.50
11934;DHT22;6026;48.784;9.198;2023-07-08T08:07:54;28.30;91.00
11934;DHT22;6026;48.784;9.198;2023-07-08T08:10:20;29.30;90.30
11934;DHT22;6026;48.784;9.198;2023-07-08T08:12:45;29.80;88.30
11934;DHT22;6026;48.784;9.198;2023-07-08T08:15:13;30.20;86.70
11934;DHT22;6026;48.784;9.198;2023-07-08T08:17:39;31.00;86.10
11934;DHT22;6026;48.784;9.198;2023-07-08T08:20:05;31.70;83.60
11934;DHT22;6026;48.784;9.198;2023-07-08T08:22:31;31.80;83.50
11934;DHT22;6026;48.784;9.198;2023-07-08T08:24:56;31.60;83.60
11934;DHT22;6026;48.784;9.198;2023-07-08T08:27:22;31.30;83.50
11934;DHT22;6026;48.784;9.198;2023-07-08T08:29:48;31.50;83.30
11934;DHT22;6026;48.784;9.198;2023-07-08T08:32:13;31.70;82.90
11934;DHT22;6026;48.784;9.198;2023-07-08T08:34:39;31.90;81.30
11934;DHT22;6026;48.784;9.198;2023-07-08T08:37:05;32.30;80.50
11934;DHT22;6026;48.784;9.198;2023-07-08T08:39:30;32.80;80.10
11934;DHT22;6026;48.784;9.198;2023-07-08T08:41:56;33.40;78.40
11934;DHT22;6026;48.784;9.198;2023-07-08T08:44:29;33.80;77.40
11934;DHT22;6026;48.784;9.198;2023-07-08T08:47:38;34.50;76.50
11934;DHT22;6026;48.784;9.198;2023-07-08T08:52:51;34.50;75.30
11934;DHT22;6026;48.784;9.198;2023-07-08T08:55:21;34.60;74.90
11934;DHT22;6026;48.784;9.198;2023-07-08T09:00:46;33.30;77.00
11934;DHT22;6026;48.784;9.198;2023-07-08T09:03:28;33.00;77.70
11934;DHT22;6026;48.784;9.198;2023-07-08T09:05:59;33.30;76.70
11934;DHT22;6026;48.784;9.198;2023-07-08T09:08:35;33.50;76.00
11934;DHT22;6026;48.784;9.198;2023-07-08T09:11:23;33.90;75.50
11934;DHT22;6026;48.784;9.198;2023-07-08T09:13:51;33.60;75.40
11934;DHT22;6026;48.784;9.198;2023-07-08T09:19:26;33.70;74.70
11934;DHT22;6026;48.784;9.198;2023-07-08T09:22:17;34.00;74.40
11934;DHT22;6026;48.784;9.198;2023-07-08T09:24:53;34.50;73.60
11934;DHT22;6026;48.784;9.198;2023-07-08T09:27:20;34.90;74.50
11934;DHT22;6026;48.784;9.198;2023-07-08T09:29:46;35.50;72.50
11934;DHT22;6026;48.784;9.198;2023-07-08T09:32:29;35.80;71.80
11934;DHT22;6026;48.784;9.198;2023-07-08T09:35:05;36.40;70.90
11934;DHT22;6026;48.784;9.198;2023-07-08T09:37:33;35.80;70.60
11934;DHT22;6026;48.784;9.198;2023-07-08T09:40:01;35.80;70.50
11934;DHT22;6026;48.784;9.198;2023-07-08T09:42:33;35.80;71.80
11934;DHT22;6026;48.784;9.198;2023-07-08T09:45:14;36.40;72.20
11934;DHT22;6026;48.784;9.198;2023-07-08T09:47:40;36.30;72.20
11934;DHT22;6026;48.784;9.198;2023-07-08T09:50:27;36.10;70.80
11934;DHT22;6026;48.784;9.198;2023-07-08T09:52:56;36.10;70.70
11934;DHT22;6026;48.784;9.198;2023-07-08T09:55:26;36.50;70.10
11934;DHT22;6026;48.784;9.198;2023-07-08T09:57:54;36.40;69.90
11934;DHT22;6026;48.784;9.198;2023-07-08T10:00:33;36.40;71.30
11934;DHT22;6026;48.784;9.198;2023-07-08T10:03:21;35.50;71.50
11934;DHT22;6026;48.784;9.198;2023-07-08T10:05:48;35.60;71.60
11934;DHT22;6026;48.784;9.198;2023-07-08T10:08:21;35.70;71.40
11934;DHT22;6026;48.784;9.198;2023-07-08T10:10:52;35.90;70.60
11934;DHT22;6026;48.784;9.198;2023-07-08T10:13:41;35.80;69.50
11934;DHT22;6026;48.784;9.198;2023-07-08T10:16:20;35.30;70.00
11934;DHT22;6026;48.784;9.198;2023-07-08T10:18:48;35.40;70.80
11934;DHT22;6026;48.784;9.198;2023-07-08T10:26:46;34.10;73.90
11934;DHT22;6026;48.784;9.198;2023-07-08T10:29:44;32.90;75.80
11934;DHT22;6026;48.784;9.198;2023-07-08T10:35:25;31.20;80.80
11934;DHT22;6026;48.784;9.198;2023-07-08T10:38:30;31.10;81.90
11934;DHT22;6026;48.784;9.198;2023-07-08T10:41:22;31.60;81.10
11934;DHT22;6026;48.784;9.198;2023-07-08T10:44:22;31.80;80.10
11934;DHT22;6026;48.784;9.198;2023-07-08T11:09:24;34.80;74.00
11934;DHT22;6026;48.784;9.198;2023-07-08T11:11:58;35.10;73.90
11934;DHT22;6026;48.784;9.198;2023-07-08T11:14:33;35.50;73.40
11934;DHT22;6026;48.784;9.198;2023-07-08T11:17:16;35.90;72.00
11934;DHT22;6026;48.784;9.198;2023-07-08T11:19:50;35.70;71.70
11934;DHT22;6026;48.784;9.198;2023-07-08T11:22:19;34.50;73.70
11934;DHT22;6026;48.784;9.198;2023-07-08T11:24:49;35.00;74.20
11934;DHT22;6026;48.784;9.198;2023-07-08T11:27:25;35.20;74.00
11934;DHT22;6026;48.784;9.198;2023-07-08T11:32:36;34.90;73.20
11934;DHT22;6026;48.784;9.198;2023-07-08T11:35:04;33.60;74.60
11934;DHT22;6026;48.784;9.198;2023-07-08T11:37:31;34.10;75.40
11934;DHT22;6026;48.784;9.198;2023-07-08T11:40:17;34.30;74.80
11934;DHT22;6026;48.784;9.198;2023-07-08T11:42:47;34.10;73.90
11934;DHT22;6026;48.784;9.198;2023-07-08T11:45:38;33.90;74.50
11934;DHT22;6026;48.784;9.198;2023-07-08T11:48:15;33.90;74.50
11934;DHT22;6026;48.784;9.198;2023-07-08T11:50:43;34.20;74.70
11934;DHT22;6026;48.784;9.198;2023-07-08T11:53:13;34.50;74.00
11934;DHT22;6026;48.784;9.198;2023-07-08T11:58:23;34.70;74.10
11934;DHT22;6026;48.784;9.198;2023-07-08T12:03:37;34.30;74.20
11934;DHT22;6026;48.784;9.198;2023-07-08T12:08:57;34.70;73.70
11934;DHT22;6026;48.784;9.198;2023-07-08T12:11:34;35.10;74.60
11934;DHT22;6026;48.784;9.198;2023-07-08T12:14:02;34.80;74.30
11934;DHT22;6026;48.784;9.198;2023-07-08T12:16:29;35.00;73.40
11934;DHT22;6026;48.784;9.198;2023-07-08T12:18:57;35.20;74.00
11934;DHT22;6026;48.784;9.198;2023-07-08T12:21:26;35.20;72.50
11934;DHT22;6026;48.784;9.198;2023-07-08T12:23:53;35.10;72.60
11934;DHT22;6026;48.784;9.198;2023-07-08T12:26:18;35.00;73.10
11934;DHT22;6026;48.784;9.198;2023-07-08T12:28:44;35.20;73.00
11934;DHT22;6026;48.784;9.198;2023-07-08T12:31:21;34.90;72.60
11934;DHT22;6026;48.784;9.198;2023-07-08T12:33:47;35.30;73.50
11934;DHT22;6026;48.784;9.198;2023-07-08T12:36:19;35.30;72.70
11934;DHT22;6026;48.784;9.198;2023-07-08T12:38:46;35.40;71.40
11934;DHT22;6026;48.784;9.198;2023-07-08T12:41:31;35.30;72.40
11934;DHT22;6026;48.784;9.198;2023-07-08T12:43:59;35.10;72.60
11934;DHT22;6026;48.784;9.198;2023-07-08T12:46:26;34.80;72.10
11934;DHT22;6026;48.784;9.198;2023-07-08T12:48:52;34.20;72.00
11934;DHT22;6026;48.784;9.198;2023-07-08T12:51:21;34.20;73.40
11934;DHT22;6026;48.784;9.198;2023-07-08T12:53:49;34.60;73.90
11934;DHT22;6026;48.784;9.198;2023-07-08T12:56:15;34.70;72.40
11934;DHT22;6026;48.784;9.198;2023-07-08T12:58:48;34.80;72.80
11934;DHT22;6026;48.784;9.198;2023-07-08T13:01:24;34.70;71.90
11934;DHT22;6026;48.784;9.198;2023-07-08T13:03:53;34.80;73.50
11934;DHT22;6026;48.784;9.198;2023-07-08T13:06:24;35.00;72.80
11934;DHT22;6026;48.784;9.198;2023-07-08T13:08:51;35.10;72.50
11934;DHT22;6026;48.784;9.198;2023-07-08T13:11:19;34.50;72.40
11934;DHT22;6026;48.784;9.198;2023-07-08T13:13:53;34.20;72.10
11934;DHT22;6026;48.784;9.198;2023-07-08T13:16:20;33.30;72.90
11934;DHT22;6026;48.784;9.198;2023-07-08T13:18:46;33.50;73.50
11934;DHT22;6026;48.784;9.198;2023-07-08T13:21:15;33.80;73.20
11934;DHT22;6026;48.784;9.198;2023-07-08T13:23:42;34.00;74.00
11934;DHT22;6026;48.784;9.198;2023-07-08T13:26:19;34.00;73.30
11934;DHT22;6026;48.784;9.198;2023-07-08T13:28:47;33.90;73.40
11934;DHT22;6026;48.784;9.198;2023-07-08T13:31:23;33.60;73.00
11934;DHT22;6026;48.784;9.198;2023-07-08T13:33:53;33.50;73.30
11934;DHT22;6026;48.784;9.198;2023-07-08T13:36:23;33.50;73.10
11934;DHT22;6026;48.784;9.198;2023-07-08T13:38:49;33.60;73.40
11934;DHT22;6026;48.784;9.198;2023-07-08T13:41:21;33.70;72.60
11934;DHT22;6026;48.784;9.198;2023-07-08T13:43:47;33.80;72.70
11934;DHT22;6026;48.784;9.198;2023-07-08T13:46:36;33.60;72.20
11934;DHT22;6026;48.784;9.198;2023-07-08T13:49:19;33.70;72.60
11934;DHT22;6026;48.784;9.198;2023-07-08T13:51:45;33.80;72.00
11934;DHT22;6026;48.784;9.198;2023-07-08T13:54:31;33.60;71.30
11934;DHT22;6026;48.784;9.198;2023-07-08T13:57:00;33.80;73.30
11934;DHT22;6026;48.784;9.198;2023-07-08T13:59:26;34.00;71.90
11934;DHT22;6026;48.784;9.198;2023-07-08T14:01:55;33.90;70.90
11934;DHT22;6026;48.784;9.198;2023-07-08T14:04:30;33.30;71.30
11934;DHT22;6026;48.784;9.198;2023-07-08T14:06:56;33.40;71.40
11934;DHT22;6026;48.784;9.198;2023-07-08T14:09:22;33.30;71.80
11934;DHT22;6026;48.784;9.198;2023-07-08T14:11:49;33.00;72.50
11934;DHT22;6026;48.784;9.198;2023-07-08T14:14:15;32.80;71.70
11934;DHT22;6026;48.784;9.198;2023-07-08T14:16:44;32.70;73.30
11934;DHT22;6026;48.784;9.198;2023-07-08T14:19:15;32.70;73.90
11934;DHT22;6026;48.784;9.198;2023-07-08T14:21:42;32.80;74.00
11934;DHT22;6026;48.784;9.198;2023-07-08T14:24:12;32.50;74.10
11934;DHT22;6026;48.784;9.198;2023-07-08T14:26:45;32.70;74.40
11934;DHT22;6026;48.784;9.198;2023-07-08T14:29:14;32.90;74.40
11934;DHT22;6026;48.784;9.198;2023-07-08T14:31:40;33.00;73.90
11934;DHT22;6026;48.784;9.198;2023-07-08T14:34:12;32.90;74.00
11934;DHT22;6026;48.784;9.198;2023-07-08T14:36:48;33.00;73.50
11934;DHT22;6026;48.784;9.198;2023-07-08T14:39:17;32.90;73.70
11934;DHT22;6026;48.784;9.198;2023-07-08T14:41:44;33.10;74.00
11934;DHT22;6026;48.784;9.198;2023-07-08T14:44:25;33.20;73.20
11934;DHT22;6026;48.784;9.198;2023-07-08T14:46:52;33.10;72.60
11934;DHT22;6026;48.784;9.198;2023-07-08T14:49:20;33.00;72.60
11934;DHT22;6026;48.784;9.198;2023-07-08T14:51:46;32.70;72.60
11934;DHT22;6026;48.784;9.198;2023-07-08T14:54:12;32.70;72.90
11934;DHT22;6026;48.784;9.198;2023-07-08T14:56:38;32.80;74.00
11934;DHT22;6026;48.784;9.198;2023-07-08T14:59:04;32.90;74.50
11934;DHT22;6026;48.784;9.198;2023-07-08T15:01:30;33.00;74.80
11934;DHT22;6026;48.784;9.198;2023-07-08T15:03:56;33.10;76.20
11934;DHT22;6026;48.784;9.198;2023-07-08T15:06:23;32.90;74.40
11934;DHT22;6026;48.784;9.198;2023-07-08T15:08:49;33.00;75.00
11934;DHT22;6026;48.784;9.198;2023-07-08T15:11:14;33.00;75.90
11934;DHT22;6026;48.784;9.198;2023-07-08T15:13:42;32.90;76.70
11934;DHT22;6026;48.784;9.198;2023-07-08T15:16:15;32.90;75.70
11934;DHT22;6026;48.784;9.198;2023-07-08T15:18:42;33.10;75.00
11934;DHT22;6026;48.784;9.198;2023-07-08T15:21:12;32.70;73.50
11934;DHT22;6026;48.784;9.198;2023-07-08T15:23:38;32.80;74.20
11934;DHT22;6026;48.784;9.198;2023-07-08T15:26:03;33.00;74.40
11934;DHT22;6026;48.784;9.198;2023-07-08T15:31:23;33.30;74.50
11934;DHT22;6026;48.784;9.198;2023-07-08T15:33:50;33.60;74.80
11934;DHT22;6026;48.784;9.198;2023-07-08T15:36:16;33.50;73.90
11934;DHT22;6026;48.784;9.198;2023-07-08T15:38:43;33.50;74.10
11934;DHT22;6026;48.784;9.198;2023-07-08T15:41:27;33.30;73.90
11934;DHT22;6026;48.784;9.198;2023-07-08T15:43:54;33.30;74.20
11934;DHT22;6026;48.784;9.198;2023-07-08T15:46:20;33.20;74.40
11934;DHT22;6026;48.784;9.198;2023-07-08T15:48:47;33.40;74.70
11934;DHT22;6026;48.784;9.198;2023-07-08T15:51:16;33.50;74.20
11934;DHT22;6026;48.784;9.198;2023-07-08T15:53:42;33.40;74.50
11934;DHT22;6026;48.784;9.198;2023-07-08T15:56:12;33.30;74.40
11934;DHT22;6026;48.784;9.198;2023-07-08T15:58:38;33.20;74.30
11934;DHT22;6026;48.784;9.198;2023-07-08T16:01:05;33.20;74.40
11934;DHT22;6026;48.784;9.198;2023-07-08T16:03:32;33.30;75.00
11934;DHT22;6026;48.784;9.198;2023-07-08T16:06:00;33.30;75.00
11934;DHT22;6026;48.784;9.198;2023-07-08T16:08:26;33.50;75.10
11934;DHT22;6026;48.784;9.198;2023-07-08T16:11:00;33.60;74.70
11934;DHT22;6026;48.784;9.198;2023-07-08T16:13:29;33.40;74.10
11934;DHT22;6026;48.784;9.198;2023-07-08T16:15:55;33.40;74.00
11934;DHT22;6026;48.784;9.198;2023-07-08T16:18:21;33.30;74.20
11934;DHT22;6026;48.784;9.198;2023-07-08T16:20:47;33.20;74.10
11934;DHT22;6026;48.784;9.198;2023-07-08T16:23:13;33.50;75.10
11934;DHT22;6026;48.784;9.198;2023-07-08T16:25:43;33.30;73.60
11934;DHT22;6026;48.784;9.198;2023-07-08T16:28:33;33.20;74.20
11934;DHT22;6026;48.784;9.198;2023-07-08T16:31:00;33.10;73.60
11934;DHT22;6026;48.784;9.198;2023-07-08T16:33:25;33.10;74.10
11934;DHT22;6026;48.784;9.198;2023-07-08T16:35:51;33.40;74.70
11934;DHT22;6026;48.784;9.198;2023-07-08T16:38:17;33.40;73.60
11934;DHT22;6026;48.784;9.198;2023-07-08T16:40:42;33.30;73.60
11934;DHT22;6026;48.784;9.198;2023-07-08T16:43:21;33.10;73.60
11934;DHT22;6026;48.784;9.198;2023-07-08T16:45:48;33.40;73.90
11934;DHT22;6026;48.784;9.198;2023-07-08T16:48:15;33.10;73.10
11934;DHT22;6026;48.784;9.198;2023-07-08T16:50:41;33.10;74.10
11934;DHT22;6026;48.784;9.198;2023-07-08T16:53:11;33.20;73.90
11934;DHT22;6026;48.784;9.198;2023-07-08T16:55:37;33.20;73.30